Time,TemperatureF,DewpointF,PressureIn,WindDirection,WindDirectionDegrees,WindSpeedMPH,WindSpeedGustMPH,Humidity,HourlyPrecipIn,Conditions,Clouds,dailyrainin,SolarRadiationWatts/m^2,SoftwareType,DateUTC
2013-03-23 00:12:00,56.0,23.0,-100.00,SE,133,5.0,7.0,27,-99.99,,,0.00,0.000000,,2013-03-23 07:12:00,
2013-03-23 00:22:00,56.0,23.0,-100.00,SE,133,5.0,7.0,27,-99.99,,,0.00,0.000000,,2013-03-23 07:22:00,
2013-03-23 01:12:00,53.0,21.0,-100.00,North,353,5.0,10.0,28,-99.99,,,0.00,0.000000,,2013-03-23 08:12:00,
2013-03-23 01:22:00,53.0,21.0,-100.00,North,353,5.0,10.0,28,-99.99,,,0.00,0.000000,,2013-03-23 08:22:00,
2013-03-23 02:12:00,48.0,22.0,-100.00,SW,222,2.0,7.0,36,-99.99,,,0.00,0.000000,,2013-03-23 09:12:00,
2013-03-23 02:22:00,48.0,22.0,-100.00,SW,222,2.0,7.0,36,-99.99,,,0.00,0.000000,,2013-03-23 09:22:00,
2013-03-23 03:12:00,52.0,16.0,-100.00,NNE,18,4.0,6.0,24,-99.99,,,0.00,0.000000,,2013-03-23 10:12:00,
2013-03-23 03:23:00,52.0,16.0,-100.00,NNE,18,4.0,6.0,24,-99.99,,,0.00,0.000000,,2013-03-23 10:23:00,
2013-03-23 04:12:00,45.0,20.0,-100.00,NNW,336,2.0,5.0,37,-99.99,,,0.00,0.000000,,2013-03-23 11:12:00,
2013-03-23 04:22:00,45.0,20.0,-100.00,NNW,336,2.0,5.0,37,-99.99,,,0.00,0.000000,,2013-03-23 11:22:00,
2013-03-23 05:12:00,42.0,21.0,-100.00,WSW,254,3.0,5.0,42,-99.99,,,0.00,0.000000,,2013-03-23 12:12:00,
2013-03-23 05:22:00,42.0,21.0,-100.00,WSW,254,3.0,5.0,42,-99.99,,,0.00,0.000000,,2013-03-23 12:22:00,
2013-03-23 06:12:00,44.0,23.0,-100.00,NNW,343,3.0,7.0,44,-99.99,,,0.00,0.000000,,2013-03-23 13:12:00,
2013-03-23 06:22:00,44.0,23.0,-100.00,NNW,343,3.0,7.0,44,-99.99,,,0.00,0.000000,,2013-03-23 13:22:00,
2013-03-23 07:12:00,46.0,26.0,-100.00,NW,315,5.0,7.0,46,-99.99,,,0.00,2.000000,,2013-03-23 14:12:00,
2013-03-23 07:22:00,46.0,26.0,-100.00,NW,315,5.0,7.0,46,-99.99,,,0.00,2.000000,,2013-03-23 14:22:00,
2013-03-23 08:12:00,53.0,29.0,-100.00,NW,314,3.0,6.0,40,-99.99,,,0.00,114.000000,,2013-03-23 15:12:00,
2013-03-23 08:22:00,53.0,29.0,-100.00,NW,314,3.0,6.0,40,-99.99,,,0.00,114.000000,,2013-03-23 15:22:00,
2013-03-23 08:33:00,53.0,29.0,-100.00,NW,314,3.0,6.0,40,-99.99,,,0.00,114.000000,,2013-03-23 15:33:00,
2013-03-23 09:12:00,64.0,18.0,-100.00,North,2,11.0,16.0,17,-99.99,,,0.00,376.000000,,2013-03-23 16:12:00,
2013-03-23 09:22:00,64.0,18.0,-100.00,North,2,11.0,16.0,17,-99.99,,,0.00,376.000000,,2013-03-23 16:22:00,
2013-03-23 09:32:00,64.0,18.0,-100.00,North,2,11.0,16.0,17,-99.99,,,0.00,376.000000,,2013-03-23 16:32:00,
2013-03-23 09:42:00,64.0,18.0,-100.00,North,2,11.0,16.0,17,-99.99,,,0.00,376.000000,,2013-03-23 16:42:00,
2013-03-23 10:12:00,69.0,19.0,-100.00,North,358,13.0,20.0,15,0.00,,,0.00,625.000000,,2013-03-23 17:12:00,
2013-03-23 10:22:00,69.0,19.0,-100.00,North,358,13.0,20.0,15,0.00,,,0.00,625.000000,,2013-03-23 17:22:00,
2013-03-23 10:32:00,69.0,19.0,-100.00,North,358,13.0,20.0,15,0.00,,,0.00,625.000000,,2013-03-23 17:32:00,
2013-03-23 10:42:00,69.0,19.0,-100.00,North,358,13.0,20.0,15,0.00,,,0.00,625.000000,,2013-03-23 17:42:00,
2013-03-23 11:12:00,72.0,12.0,-100.00,North,349,14.0,23.0,10,0.00,,,0.00,830.000000,,2013-03-23 18:12:00,
2013-03-23 11:22:00,72.0,12.0,-100.00,North,349,14.0,23.0,10,0.00,,,0.00,830.000000,,2013-03-23 18:22:00,
2013-03-23 11:32:00,72.0,12.0,-100.00,North,349,14.0,23.0,10,0.00,,,0.00,830.000000,,2013-03-23 18:32:00,
2013-03-23 11:42:00,72.0,12.0,-100.00,North,349,14.0,23.0,10,0.00,,,0.00,830.000000,,2013-03-23 18:42:00,
2013-03-23 12:12:00,73.0,8.0,-100.00,North,10,15.0,23.0,8,0.00,,,0.00,978.000000,,2013-03-23 19:12:00,
2013-03-23 12:22:00,73.0,8.0,-100.00,North,10,15.0,23.0,8,0.00,,,0.00,978.000000,,2013-03-23 19:22:00,
2013-03-23 12:32:00,73.0,8.0,-100.00,North,10,15.0,23.0,8,0.00,,,0.00,978.000000,,2013-03-23 19:32:00,
2013-03-23 12:42:00,73.0,8.0,-100.00,North,10,15.0,23.0,8,0.00,,,0.00,978.000000,,2013-03-23 19:42:00,
2013-03-23 13:12:00,75.0,7.0,-100.00,North,358,13.0,24.0,7,0.00,,,0.00,1047.000000,,2013-03-23 20:12:00,
2013-03-23 13:22:00,75.0,7.0,-100.00,North,358,13.0,24.0,7,0.00,,,0.00,1047.000000,,2013-03-23 20:22:00,
2013-03-23 13:32:00,75.0,7.0,-100.00,North,358,13.0,24.0,7,0.00,,,0.00,1047.000000,,2013-03-23 20:32:00,
2013-03-23 13:42:00,75.0,7.0,-100.00,North,358,13.0,24.0,7,0.00,,,0.00,1047.000000,,2013-03-23 20:42:00,
2013-03-23 14:12:00,76.0,7.0,-100.00,North,2,11.0,21.0,7,0.00,,,0.00,1038.000000,,2013-03-23 21:12:00,
2013-03-23 14:22:00,76.0,7.0,-100.00,North,2,11.0,21.0,7,0.00,,,0.00,1038.000000,,2013-03-23 21:22:00,
2013-03-23 14:32:00,76.0,7.0,-100.00,North,2,11.0,21.0,7,0.00,,,0.00,1038.000000,,2013-03-23 21:32:00,
2013-03-23 14:42:00,76.0,7.0,-100.00,North,2,11.0,21.0,7,0.00,,,0.00,1038.000000,,2013-03-23 21:42:00,
2013-03-23 15:12:00,77.0,8.0,-100.00,NNW,347,11.0,21.0,7,0.00,,,0.00,948.000000,,2013-03-23 22:12:00,
2013-03-23 15:23:00,77.0,8.0,-100.00,NNW,347,11.0,21.0,7,0.00,,,0.00,948.000000,,2013-03-23 22:23:00,
2013-03-23 15:32:00,77.0,8.0,-100.00,NNW,347,11.0,21.0,7,0.00,,,0.00,948.000000,,2013-03-23 22:32:00,
2013-03-23 15:42:00,77.0,8.0,-100.00,NNW,347,11.0,21.0,7,0.00,,,0.00,948.000000,,2013-03-23 22:42:00,
2013-03-23 16:12:00,76.0,4.0,-100.00,NNW,332,12.0,19.0,6,0.00,,,0.00,788.000000,,2013-03-23 23:12:00,
2013-03-23 16:22:00,76.0,4.0,-100.00,NNW,332,12.0,19.0,6,0.00,,,0.00,788.000000,,2013-03-23 23:22:00,
2013-03-23 16:32:00,76.0,4.0,-100.00,NNW,332,12.0,19.0,6,0.00,,,0.00,788.000000,,2013-03-23 23:32:00,
2013-03-23 16:42:00,76.0,4.0,-100.00,NNW,332,12.0,19.0,6,0.00,,,0.00,788.000000,,2013-03-23 23:42:00,
2013-03-23 17:12:00,76.0,4.0,-100.00,NNW,347,12.0,17.0,6,0.00,,,0.00,567.000000,,2013-03-24 00:12:00,
2013-03-23 17:22:00,76.0,4.0,-100.00,NNW,347,12.0,17.0,6,0.00,,,0.00,567.000000,,2013-03-24 00:22:00,
2013-03-23 17:32:00,76.0,4.0,-100.00,NNW,347,12.0,17.0,6,0.00,,,0.00,567.000000,,2013-03-24 00:32:00,
2013-03-23 17:42:00,76.0,4.0,-100.00,NNW,347,12.0,17.0,6,0.00,,,0.00,567.000000,,2013-03-24 00:42:00,
2013-03-23 18:12:00,75.0,7.0,-100.00,North,11,8.0,16.0,7,0.00,,,0.00,318.000000,,2013-03-24 01:12:00,
2013-03-23 18:22:00,75.0,7.0,-100.00,North,11,8.0,16.0,7,0.00,,,0.00,318.000000,,2013-03-24 01:22:00,
2013-03-23 18:32:00,75.0,7.0,-100.00,North,11,8.0,16.0,7,0.00,,,0.00,318.000000,,2013-03-24 01:32:00,
2013-03-23 18:42:00,75.0,7.0,-100.00,North,11,8.0,16.0,7,0.00,,,0.00,318.000000,,2013-03-24 01:42:00,
2013-03-23 19:12:00,70.0,9.0,-100.00,North,4,7.0,15.0,9,0.00,,,0.00,80.000000,,2013-03-24 02:12:00,
2013-03-23 19:21:00,70.0,9.0,-100.00,North,4,7.0,15.0,9,0.00,,,0.00,80.000000,,2013-03-24 02:21:00,
2013-03-23 19:32:00,70.0,9.0,-100.00,North,4,7.0,15.0,9,0.00,,,0.00,80.000000,,2013-03-24 02:32:00,
2013-03-23 19:42:00,70.0,9.0,-100.00,North,4,7.0,15.0,9,0.00,,,0.00,80.000000,,2013-03-24 02:42:00,
2013-03-23 20:12:00,62.0,15.0,-100.00,NNW,348,4.0,8.0,16,0.00,,,0.00,1.000000,,2013-03-24 03:12:00,
2013-03-23 20:22:00,62.0,15.0,-100.00,NNW,348,4.0,8.0,16,0.00,,,0.00,1.000000,,2013-03-24 03:22:00,
2013-03-23 21:12:00,54.0,22.0,-100.00,NNW,336,6.0,7.0,28,0.00,,,0.00,0.000000,,2013-03-24 04:12:00,
2013-03-23 21:22:00,54.0,22.0,-100.00,NNW,336,6.0,7.0,28,0.00,,,0.00,0.000000,,2013-03-24 04:22:00,
2013-03-23 22:12:00,55.0,22.0,-100.00,NNW,344,6.0,7.0,27,-99.99,,,0.00,0.000000,,2013-03-24 05:12:00,
2013-03-23 22:22:00,55.0,22.0,-100.00,NNW,344,6.0,7.0,27,-99.99,,,0.00,0.000000,,2013-03-24 05:22:00,
2013-03-23 23:12:00,53.0,24.0,-100.00,North,355,4.0,7.0,32,-99.99,,,0.00,0.000000,,2013-03-24 06:12:00,
2013-03-23 23:22:00,53.0,24.0,-100.00,North,355,4.0,7.0,32,-99.99,,,0.00,0.000000,,2013-03-24 06:22:00,